createdAt,value
2022-09-01T00:00:13.478Z,102011.78
2022-09-01T00:02:44.097Z,102009.88
2022-09-01T00:05:14.592Z,102014.50
2022-09-01T00:07:41.636Z,102019.63
2022-09-01T00:10:09.886Z,102012.09
2022-09-01T00:12:38.662Z,102012.81
2022-09-01T00:15:09.475Z,102011.47
2022-09-01T00:17:36.949Z,102012.53
2022-09-01T00:20:05.625Z,102012.94
2022-09-01T00:22:33.719Z,102014.78
2022-09-01T00:25:02.097Z,102012.56
2022-09-01T00:27:32.424Z,102012.50
2022-09-01T00:30:00.505Z,102006.91
2022-09-01T00:32:28.637Z,102010.81
2022-09-01T00:34:57.589Z,102010.56
2022-09-01T00:37:24.801Z,102007.41
2022-09-01T00:39:53.737Z,102015.53
2022-09-01T00:42:20.876Z,102006.84
2022-09-01T00:44:50.688Z,102004.94
2022-09-01T00:47:17.741Z,102004.53
2022-09-01T00:49:49.777Z,102009.94
2022-09-01T00:52:23.524Z,101995.38
2022-09-01T00:54:58.334Z,102003.59
2022-09-01T00:57:26.490Z,101995.88
2022-09-01T01:00:03.469Z,101992.31
2022-09-01T01:02:30.389Z,101997.94
2022-09-01T01:05:00.604Z,102000.53
2022-09-01T01:07:30.816Z,102001.63
2022-09-01T01:10:03.492Z,101988.91
2022-09-01T01:12:40.393Z,101997.94
2022-09-01T01:15:11.167Z,101997.56
2022-09-01T01:17:40.887Z,102005.34
2022-09-01T01:20:34.127Z,102004.16
2022-09-01T01:23:16.225Z,102000.66
2022-09-01T01:25:49.227Z,102011.59
2022-09-01T01:28:31.092Z,102003.09
2022-09-01T01:31:06.216Z,101999.03
2022-09-01T01:33:41.754Z,102005.53
2022-09-01T01:36:16.453Z,101993.88
2022-09-01T01:38:49.222Z,101996.25
2022-09-01T01:41:19.854Z,101999.31
2022-09-01T01:43:51.144Z,101998.09
2022-09-01T01:46:19.276Z,102003.41
2022-09-01T01:48:47.624Z,101999.50
2022-09-01T01:51:26.788Z,102003.78
2022-09-01T01:53:55.350Z,102001.13
2022-09-01T01:56:25.741Z,101998.84
2022-09-01T01:58:56.207Z,101993.91
2022-09-01T02:01:25.897Z,101998.34
2022-09-01T02:03:56.409Z,101999.22
2022-09-01T02:06:28.206Z,101993.53
2022-09-01T02:08:58.336Z,102006.84
2022-09-01T02:11:26.516Z,101997.78
2022-09-01T02:13:57.446Z,101996.47
2022-09-01T02:16:27.344Z,102001.09
2022-09-01T02:18:55.050Z,102004.25
2022-09-01T02:21:27.711Z,102001.72
2022-09-01T02:24:02.246Z,102003.09
2022-09-01T02:26:40.645Z,101993.19
2022-09-01T02:29:18.203Z,101997.63
2022-09-01T02:31:52.024Z,101993.56
2022-09-01T02:34:24.122Z,101995.25
2022-09-01T02:36:53.744Z,101989.06
2022-09-01T02:39:27.453Z,101999.03
2022-09-01T02:41:54.956Z,101998.00
2022-09-01T02:44:24.559Z,101998.19
2022-09-01T02:46:51.507Z,101998.03
2022-09-01T02:49:28.358Z,101996.69
2022-09-01T02:52:01.712Z,102000.16
2022-09-01T02:54:31.953Z,102001.16
2022-09-01T02:57:02.465Z,101993.31
2022-09-01T02:59:32.266Z,101986.13
2022-09-01T03:02:02.627Z,102006.63
2022-09-01T03:04:33.951Z,102004.25
2022-09-01T03:07:03.657Z,102001.19
2022-09-01T03:09:34.378Z,102005.13
2022-09-01T03:12:01.710Z,102002.41
2022-09-01T03:14:30.105Z,102002.41
2022-09-01T03:17:00.710Z,102014.38
2022-09-01T03:19:44.388Z,102003.28
2022-09-01T03:22:11.752Z,102001.91
2022-09-01T03:24:41.278Z,102001.41
2022-09-01T03:27:11.727Z,101997.13
2022-09-01T03:29:41.284Z,101994.06
2022-09-01T03:32:08.329Z,101999.34
2022-09-01T03:34:39.613Z,101997.47
2022-09-01T03:37:08.049Z,101996.41
2022-09-01T03:39:35.429Z,101988.59
2022-09-01T03:42:02.576Z,101989.22
2022-09-01T03:44:35.457Z,101988.88
2022-09-01T03:47:10.552Z,101991.63
2022-09-01T03:49:39.430Z,101981.38
2022-09-01T03:52:09.006Z,101994.34
2022-09-01T03:54:36.742Z,101990.59
2022-09-01T03:57:10.186Z,101996.34
2022-09-01T03:59:43.352Z,101996.00
2022-09-01T04:02:15.145Z,101999.44
2022-09-01T04:04:42.109Z,101999.44
2022-09-01T04:07:08.994Z,101996.72
2022-09-01T04:09:40.343Z,101994.97
2022-09-01T04:12:09.004Z,101996.53
2022-09-01T04:14:40.465Z,101998.38
2022-09-01T04:17:30.550Z,101996.34
2022-09-01T04:19:57.994Z,101992.59
2022-09-01T04:22:29.225Z,101997.06
2022-09-01T04:24:56.214Z,101997.88
2022-09-01T04:27:24.631Z,102001.81
2022-09-01T04:29:57.092Z,102001.16
2022-09-01T04:32:25.799Z,102002.78
2022-09-01T04:34:52.657Z,102005.50
2022-09-01T04:37:21.978Z,101994.94
2022-09-01T04:39:57.545Z,102006.88
2022-09-01T04:42:32.407Z,101995.47
2022-09-01T04:45:10.334Z,102005.28
2022-09-01T04:47:41.883Z,102002.22
2022-09-01T04:50:17.175Z,102010.59
2022-09-01T04:52:47.887Z,102003.44
2022-09-01T04:55:18.252Z,101995.44
2022-09-01T04:57:49.160Z,102003.59
2022-09-01T05:00:24.244Z,101994.59
2022-09-01T05:03:04.420Z,101998.03
2022-09-01T05:05:44.450Z,101989.84
2022-09-01T05:08:23.165Z,101996.00
2022-09-01T05:10:56.719Z,101999.47
2022-09-01T05:13:29.610Z,101994.34
2022-09-01T05:16:12.939Z,102003.03
2022-09-01T05:18:48.895Z,101996.91
2022-09-01T05:21:22.096Z,102004.25
2022-09-01T05:23:55.314Z,102008.03
2022-09-01T05:26:26.515Z,102010.47
2022-09-01T05:28:58.534Z,102008.41
2022-09-01T05:31:28.565Z,102006.00
2022-09-01T05:33:58.075Z,102008.41
2022-09-01T05:36:25.735Z,102008.91
2022-09-01T05:38:57.022Z,102007.03
2022-09-01T05:41:27.488Z,102007.53
2022-09-01T05:44:00.505Z,102009.59
2022-09-01T05:46:28.440Z,102016.44
2022-09-01T05:48:57.007Z,102013.84
2022-09-01T05:51:44.209Z,102026.50
2022-09-01T05:54:13.980Z,102018.31
2022-09-01T05:56:44.142Z,102021.03
2022-09-01T05:59:23.331Z,102025.78
2022-09-01T06:01:54.957Z,102026.47
2022-09-01T06:04:25.486Z,102026.28
2022-09-01T06:07:06.592Z,102034.97
2022-09-01T06:09:42.819Z,102035.66
2022-09-01T06:12:23.120Z,102027.84
2022-09-01T06:14:55.647Z,102028.78
2022-09-01T06:17:25.996Z,102023.13
2022-09-01T06:19:56.715Z,102021.88
2022-09-01T06:22:27.918Z,102023.13
2022-09-01T06:25:02.728Z,102019.13
2022-09-01T06:27:34.236Z,102023.13
2022-09-01T06:30:01.584Z,102025.47
2022-09-01T06:32:35.301Z,102021.59
2022-09-01T06:35:05.665Z,102022.00
2022-09-01T06:37:32.805Z,102020.19
2022-09-01T06:40:03.310Z,102027.41
2022-09-01T06:42:35.316Z,102028.97
2022-09-01T06:45:02.592Z,102027.94
2022-09-01T06:47:31.658Z,102022.50
2022-09-01T06:49:59.362Z,102020.88
2022-09-01T06:52:26.561Z,102032.19
2022-09-01T06:54:54.091Z,102028.97
2022-09-01T07:00:21.018Z,102025.94
2022-09-01T07:02:54.953Z,102033.06
2022-09-01T07:08:19.908Z,102033.53
2022-09-01T07:14:15.260Z,102029.69
2022-09-01T07:16:41.837Z,102043.34
2022-09-01T07:19:19.132Z,102042.63
2022-09-01T07:24:37.567Z,102037.53
2022-09-01T07:27:09.500Z,102038.44
2022-09-01T07:29:39.270Z,102043.94
2022-09-01T07:34:57.118Z,102038.69
2022-09-01T07:43:27.185Z,102046.38
2022-09-01T07:45:59.630Z,102052.25
2022-09-01T07:49:01.861Z,102055.22
2022-09-01T07:51:36.912Z,102043.50
2022-09-01T07:54:05.656Z,102051.38
2022-09-01T07:56:39.737Z,102050.78
2022-09-01T07:59:14.579Z,102042.78
2022-09-01T08:01:43.165Z,102044.59
2022-09-01T08:04:12.241Z,102053.97
2022-09-01T08:06:39.690Z,102046.94
2022-09-01T08:09:11.569Z,102050.28
2022-09-01T08:14:33.823Z,102062.72
2022-09-01T08:19:55.378Z,102055.16
2022-09-01T08:22:27.893Z,102066.41
2022-09-01T08:24:57.968Z,102059.75
2022-09-01T08:27:24.881Z,102063.22
2022-09-01T08:29:54.860Z,102070.69
2022-09-01T08:32:22.474Z,102061.09
2022-09-01T08:34:51.980Z,102060.19
2022-09-01T08:37:19.198Z,102063.94
2022-09-01T08:39:48.538Z,102061.53
2022-09-01T08:42:18.613Z,102053.47
2022-09-01T08:45:08.400Z,102053.72
2022-09-01T08:47:56.024Z,102064.00
2022-09-01T08:50:25.565Z,102052.63
2022-09-01T08:53:09.632Z,102061.81
2022-09-01T08:55:44.074Z,102069.50
2022-09-01T08:58:14.586Z,102054.19
2022-09-01T09:00:58.012Z,102062.63
2022-09-01T09:04:11.664Z,102064.34
2022-09-01T09:07:02.765Z,102059.94
2022-09-01T09:09:47.838Z,102058.09
2022-09-01T09:13:02.220Z,102062.09
2022-09-01T09:15:52.781Z,102056.34
2022-09-01T09:18:39.859Z,102054.28
2022-09-01T09:21:24.845Z,102053.41
2022-09-01T09:24:03.568Z,102050.31
2022-09-01T09:26:47.528Z,102049.47
2022-09-01T09:29:18.082Z,102049.97
2022-09-01T09:31:50.499Z,102051.41
2022-09-01T09:34:35.071Z,102039.09
2022-09-01T09:37:30.831Z,102045.94
2022-09-01T09:40:15.211Z,102035.94
2022-09-01T09:43:05.929Z,102042.44
2022-09-01T09:45:41.992Z,102040.31
2022-09-01T09:48:31.668Z,102033.69
2022-09-01T09:51:28.933Z,102035.75
2022-09-01T09:54:23.054Z,102024.66
2022-09-01T09:57:22.100Z,102034.31
2022-09-01T10:00:00.540Z,102026.94
2022-09-01T10:02:41.348Z,102018.59
2022-09-01T10:05:44.212Z,102024.69
2022-09-01T10:08:29.498Z,102007.88
2022-09-01T10:11:00.465Z,102011.88
2022-09-01T10:13:33.044Z,102010.66
2022-09-01T10:16:14.196Z,102014.09
2022-09-01T10:18:47.409Z,102014.81
2022-09-01T10:21:34.558Z,102013.38
2022-09-01T10:24:21.132Z,102008.66
2022-09-01T10:26:54.975Z,102008.75
2022-09-01T10:29:47.847Z,102005.78
2022-09-01T10:32:36.996Z,102005.56
2022-09-01T10:35:13.041Z,102002.25
2022-09-01T10:37:41.417Z,101995.63
2022-09-01T10:40:30.977Z,102005.81
2022-09-01T10:43:38.031Z,101997.59
2022-09-01T10:46:38.588Z,101997.81
2022-09-01T10:49:28.536Z,101999.44
2022-09-01T10:52:03.247Z,102010.75
2022-09-01T10:54:50.848Z,101988.13
2022-09-01T10:57:43.839Z,101998.44
2022-09-01T11:00:35.881Z,101985.47
2022-09-01T11:03:51.745Z,101996.88
2022-09-01T11:07:16.591Z,101994.13
2022-09-01T11:10:32.105Z,101990.69
2022-09-01T11:13:14.972Z,101983.38
2022-09-01T11:15:45.005Z,101985.09
2022-09-01T11:18:27.181Z,101982.19
2022-09-01T11:21:25.782Z,101971.91
2022-09-01T11:25:00.295Z,101976.75
2022-09-01T11:27:50.923Z,101974.25
2022-09-01T11:30:21.722Z,101974.22
2022-09-01T11:32:58.766Z,101966.41
2022-09-01T11:35:29.077Z,101967.75
2022-09-01T11:38:03.165Z,101964.50
2022-09-01T11:40:36.252Z,101965.41
2022-09-01T11:43:16.849Z,101962.78
2022-09-01T11:46:11.323Z,101963.09
2022-09-01T11:48:46.469Z,101965.75
2022-09-01T11:51:21.499Z,101964.09
2022-09-01T11:53:52.180Z,101966.88
2022-09-01T11:56:26.457Z,101969.97
2022-09-01T11:58:55.999Z,101965.03
2022-09-01T12:01:33.375Z,101968.28
2022-09-01T12:04:25.526Z,101970.81
2022-09-01T12:07:13.753Z,101954.19
2022-09-01T12:09:48.007Z,101962.22
2022-09-01T12:12:39.946Z,101946.59
2022-09-01T12:15:24.217Z,101946.38
2022-09-01T12:17:55.723Z,101959.63
2022-09-01T12:20:34.872Z,101953.53
2022-09-01T12:23:02.533Z,101941.91
2022-09-01T12:25:34.425Z,101935.31
2022-09-01T12:28:06.568Z,101923.31
2022-09-01T12:30:40.708Z,101937.31
2022-09-01T12:33:29.049Z,101928.09
2022-09-01T12:36:35.096Z,101931.03
2022-09-01T12:39:23.943Z,101935.75
2022-09-01T12:42:15.384Z,101929.53
2022-09-01T12:44:44.244Z,101931.19
2022-09-01T12:47:40.886Z,101919.31
2022-09-01T12:50:17.055Z,101924.78
2022-09-01T12:52:52.331Z,101917.88
2022-09-01T12:55:47.962Z,101919.34
2022-09-01T12:58:26.117Z,101911.09
2022-09-01T13:01:13.830Z,101908.78
2022-09-01T13:04:28.285Z,101909.97
2022-09-01T13:07:01.234Z,101913.94
2022-09-01T13:09:30.430Z,101906.66
2022-09-01T13:12:21.392Z,101909.66
2022-09-01T13:14:48.564Z,101905.56
2022-09-01T13:17:20.184Z,101905.59
2022-09-01T13:19:49.570Z,101900.53
2022-09-01T13:22:19.487Z,101902.91
2022-09-01T13:24:51.221Z,101899.88
2022-09-01T13:27:21.820Z,101904.47
2022-09-01T13:29:50.410Z,101898.34
2022-09-01T13:32:21.660Z,101903.66
2022-09-01T13:34:54.078Z,101899.81
2022-09-01T13:37:22.346Z,101892.56
2022-09-01T13:39:49.968Z,101896.59
2022-09-01T13:42:20.188Z,101892.28
2022-09-01T13:44:49.695Z,101891.56
2022-09-01T13:47:30.139Z,101886.97
2022-09-01T13:50:07.919Z,101885.59
2022-09-01T13:52:35.905Z,101881.06
2022-09-01T13:55:05.477Z,101883.38
2022-09-01T13:57:35.675Z,101880.38
2022-09-01T14:00:17.247Z,101880.78
2022-09-01T14:02:49.202Z,101881.69
2022-09-01T14:05:26.173Z,101890.44
2022-09-01T14:07:54.511Z,101880.03
2022-09-01T14:10:23.972Z,101873.31
2022-09-01T14:12:53.511Z,101877.69
2022-09-01T14:15:27.338Z,101870.13
2022-09-01T14:17:57.875Z,101862.56
2022-09-01T14:20:33.479Z,101863.91
2022-09-01T14:23:06.600Z,101858.09
2022-09-01T14:25:34.818Z,101855.31
2022-09-01T14:28:04.730Z,101855.81
2022-09-01T14:30:34.078Z,101849.41
2022-09-01T14:33:02.149Z,101842.31
2022-09-01T14:35:33.101Z,101840.09
2022-09-01T14:38:01.420Z,101843.31
2022-09-01T14:40:29.342Z,101841.81
2022-09-01T14:42:59.369Z,101846.78
2022-09-01T14:45:33.908Z,101831.47
2022-09-01T14:48:03.906Z,101839.50
2022-09-01T14:50:34.108Z,101831.81
2022-09-01T14:53:04.350Z,101830.81
2022-09-01T14:55:32.799Z,101828.56
2022-09-01T14:58:02.265Z,101827.06
2022-09-01T15:00:41.727Z,101830.00
2022-09-01T15:03:10.981Z,101816.56
2022-09-01T15:05:39.860Z,101821.97
2022-09-01T15:08:12.030Z,101814.97
2022-09-01T15:10:45.656Z,101817.13
2022-09-01T15:13:13.621Z,101810.47
2022-09-01T15:15:43.135Z,101809.38
2022-09-01T15:18:10.711Z,101797.91
2022-09-01T15:20:45.496Z,101800.09
2022-09-01T15:23:24.966Z,101801.59
2022-09-01T15:25:57.748Z,101808.50
2022-09-01T15:28:26.031Z,101802.03
2022-09-01T15:31:00.309Z,101808.13
2022-09-01T15:33:29.824Z,101806.31
2022-09-01T15:35:56.797Z,101795.84
2022-09-01T15:38:28.367Z,101798.38
2022-09-01T15:41:00.362Z,101798.75
2022-09-01T15:43:31.621Z,101795.78
2022-09-01T15:46:02.095Z,101796.56
2022-09-01T15:48:29.810Z,101801.63
2022-09-01T15:51:23.059Z,101797.38
2022-09-01T15:53:51.805Z,101795.81
2022-09-01T15:56:18.948Z,101791.47
2022-09-01T15:59:00.862Z,101791.97
2022-09-01T16:01:34.980Z,101794.94
2022-09-01T16:04:06.991Z,101788.69
2022-09-01T16:06:37.429Z,101784.94
2022-09-01T16:09:09.432Z,101777.47
2022-09-01T16:11:39.542Z,101782.06
2022-09-01T16:14:09.223Z,101780.75
2022-09-01T16:17:10.266Z,101777.00
2022-09-01T16:19:52.502Z,101776.50
2022-09-01T16:22:36.028Z,101771.59
2022-09-01T16:25:18.270Z,101778.53
2022-09-01T16:27:46.143Z,101765.63
2022-09-01T16:30:22.510Z,101771.88
2022-09-01T16:32:50.267Z,101772.38
2022-09-01T16:35:19.734Z,101776.34
2022-09-01T16:38:18.971Z,101770.88
2022-09-01T16:41:18.142Z,101770.25
2022-09-01T16:44:20.863Z,101775.66
2022-09-01T16:47:09.407Z,101770.84
2022-09-01T16:49:58.021Z,101771.59
2022-09-01T16:52:29.470Z,101775.78
2022-09-01T16:55:24.413Z,101775.56
2022-09-01T16:58:23.344Z,101769.25
2022-09-01T17:01:02.181Z,101775.00
2022-09-01T17:04:05.537Z,101768.41
2022-09-01T17:06:49.429Z,101771.59
2022-09-01T17:09:35.418Z,101773.47
2022-09-01T17:12:25.121Z,101769.50
2022-09-01T17:15:10.082Z,101777.03
2022-09-01T17:17:55.350Z,101768.94
2022-09-01T17:20:31.405Z,101775.25
2022-09-01T17:23:08.902Z,101777.78
2022-09-01T17:26:05.124Z,101769.53
2022-09-01T17:28:43.797Z,101771.09
2022-09-01T17:31:33.909Z,101778.00
2022-09-01T17:34:54.879Z,101781.72
2022-09-01T17:37:58.732Z,101777.13
2022-09-01T17:40:44.965Z,101780.53
2022-09-01T17:43:21.524Z,101778.31
2022-09-01T17:46:31.215Z,101783.38
2022-09-01T17:49:10.072Z,101780.34
2022-09-01T17:51:50.609Z,101786.41
2022-09-01T17:54:34.365Z,101786.66
2022-09-01T17:57:42.962Z,101786.28
2022-09-01T18:00:34.460Z,101791.81
2022-09-01T18:03:07.854Z,101795.53
2022-09-01T18:05:59.986Z,101793.28
2022-09-01T18:08:44.792Z,101784.56
2022-09-01T18:11:23.122Z,101789.56
2022-09-01T18:14:00.447Z,101791.22
2022-09-01T18:16:37.072Z,101797.59
2022-09-01T18:19:17.318Z,101795.09
2022-09-01T18:21:58.372Z,101794.75
2022-09-01T18:24:40.349Z,101797.09
2022-09-01T18:27:09.083Z,101794.13
2022-09-01T18:29:36.085Z,101799.88
2022-09-01T18:32:34.954Z,101792.69
2022-09-01T18:35:24.504Z,101800.97
2022-09-01T18:38:13.491Z,101804.16
2022-09-01T18:41:01.588Z,101802.06
2022-09-01T18:43:57.398Z,101807.78
2022-09-01T18:46:49.396Z,101808.00
2022-09-01T18:49:33.719Z,101816.50
2022-09-01T18:52:33.000Z,101811.41
2022-09-01T18:55:24.972Z,101812.28
2022-09-01T18:58:17.075Z,101814.38
2022-09-01T19:01:05.808Z,101815.88
2022-09-01T19:04:05.071Z,101812.44
2022-09-01T19:07:02.262Z,101820.75
2022-09-01T19:09:42.828Z,101819.22
2022-09-01T19:12:43.139Z,101818.16
2022-09-01T19:15:19.486Z,101830.44
2022-09-01T19:18:12.883Z,101823.63
2022-09-01T19:21:10.782Z,101832.09
2022-09-01T19:23:50.620Z,101829.50
2022-09-01T19:26:25.430Z,101828.66
2022-09-01T19:29:02.103Z,101826.97
2022-09-01T19:32:00.105Z,101821.84
2022-09-01T19:34:55.854Z,101828.22
2022-09-01T19:37:53.625Z,101829.00
2022-09-01T19:40:39.330Z,101832.38
2022-09-01T19:43:20.771Z,101837.44
2022-09-01T19:46:09.823Z,101835.88
2022-09-01T19:48:58.545Z,101832.81
2022-09-01T19:51:59.108Z,101826.06
2022-09-01T19:55:11.293Z,101830.06
2022-09-01T19:57:59.448Z,101825.84
2022-09-01T20:00:50.977Z,101828.94
2022-09-01T20:03:41.447Z,101828.28
2022-09-01T20:06:37.678Z,101835.41
2022-09-01T20:09:26.333Z,101829.50
2022-09-01T20:12:48.012Z,101839.38
2022-09-01T20:15:44.276Z,101834.59
2022-09-01T20:18:34.717Z,101827.41
2022-09-01T20:21:20.922Z,101828.59
2022-09-01T20:24:12.007Z,101835.38
2022-09-01T20:26:51.894Z,101835.97
2022-09-01T20:29:23.532Z,101837.31
2022-09-01T20:31:57.371Z,101847.38
2022-09-01T20:34:40.373Z,101839.53
2022-09-01T20:37:48.177Z,101841.63
2022-09-01T20:40:32.217Z,101845.47
2022-09-01T20:43:29.590Z,101834.75
2022-09-01T20:45:58.880Z,101841.91
2022-09-01T20:48:27.932Z,101843.72
2022-09-01T20:51:07.861Z,101851.25
2022-09-01T20:53:56.297Z,101842.81
2022-09-01T20:56:36.993Z,101843.78
2022-09-01T20:59:36.500Z,101847.94
2022-09-01T21:02:28.164Z,101845.44
2022-09-01T21:05:19.270Z,101843.78
2022-09-01T21:07:56.199Z,101848.13
2022-09-01T21:10:32.176Z,101847.00
2022-09-01T21:13:45.190Z,101850.28
2022-09-01T21:16:51.822Z,101847.78
2022-09-01T21:19:27.656Z,101845.63
2022-09-01T21:22:07.252Z,101850.28
2022-09-01T21:24:34.858Z,101842.28
2022-09-01T21:27:07.678Z,101842.56
2022-09-01T21:30:09.348Z,101841.22
2022-09-01T21:32:37.139Z,101837.78
2022-09-01T21:35:07.820Z,101849.75
2022-09-01T21:37:37.320Z,101848.63
2022-09-01T21:40:06.261Z,101846.34
2022-09-01T21:42:59.761Z,101848.88
2022-09-01T21:45:32.744Z,101839.66
2022-09-01T21:48:04.436Z,101844.06
2022-09-01T21:50:35.856Z,101843.16
2022-09-01T21:53:05.289Z,101846.97
2022-09-01T21:55:33.028Z,101852.06
2022-09-01T21:57:59.989Z,101849.59
2022-09-01T22:00:31.034Z,101844.69
2022-09-01T22:02:59.491Z,101839.56
2022-09-01T22:05:27.826Z,101846.75
2022-09-01T22:07:56.533Z,101837.47
2022-09-01T22:10:28.573Z,101843.34
2022-09-01T22:12:57.275Z,101839.88
2022-09-01T22:15:28.126Z,101841.50
2022-09-01T22:17:58.959Z,101845.56
2022-09-01T22:20:32.074Z,101841.78
2022-09-01T22:23:02.031Z,101840.09
2022-09-01T22:25:34.028Z,101839.44
2022-09-01T22:28:05.863Z,101844.34
2022-09-01T22:30:33.618Z,101847.66
2022-09-01T22:33:07.708Z,101847.66
2022-09-01T22:35:37.993Z,101848.59
2022-09-01T22:38:04.896Z,101846.44
2022-09-01T22:40:35.427Z,101850.69
2022-09-01T22:43:03.124Z,101842.53
2022-09-01T22:45:32.567Z,101844.59
2022-09-01T22:47:59.495Z,101844.84
2022-09-01T22:50:26.524Z,101847.28
2022-09-01T22:52:53.471Z,101850.38
2022-09-01T22:55:20.605Z,101845.81
2022-09-01T22:57:47.560Z,101841.50
2022-09-01T23:00:15.106Z,101850.25
2022-09-01T23:02:42.221Z,101852.75
2022-09-01T23:05:09.499Z,101847.09
2022-09-01T23:07:39.421Z,101844.00
2022-09-01T23:10:10.797Z,101839.47
2022-09-01T23:12:40.256Z,101841.00
2022-09-01T23:15:08.885Z,101839.31
2022-09-01T23:17:37.888Z,101832.63
2022-09-01T23:20:11.367Z,101824.50
2022-09-01T23:22:46.103Z,101828.25
2022-09-01T23:25:18.468Z,101831.28
2022-09-01T23:27:45.633Z,101819.50
2022-09-01T23:30:14.789Z,101828.94
2022-09-01T23:32:44.001Z,101829.63
2022-09-01T23:35:11.933Z,101826.22
2022-09-01T23:37:38.999Z,101823.91
2022-09-01T23:40:07.939Z,101827.81
2022-09-01T23:42:41.426Z,101825.25
2022-09-01T23:45:11.447Z,101820.13
2022-09-01T23:47:38.526Z,101808.75
2022-09-01T23:50:06.976Z,101810.50
2022-09-01T23:52:37.163Z,101816.72
2022-09-01T23:55:07.956Z,101814.72
2022-09-01T23:57:38.259Z,101811.31
